Time;durP1;ratioP1;P1;durP2;ratioP2;P2;SDS_P1;SDS_P2;PMS_P1;PMS_P2;Temp;Humidity;BMP_temperature;BMP_pressure;BME280_temperature;BME280_humidity;BME280_pressure;Samples;Min_cycle;Max_cycle;Signal;HPM_P1;HPM_P2
2023/10/20 00:02:14;;;;;;;79.10;38.63;;;;;;;;;;5041792;28;20017;-68
2023/10/20 00:04:39;;;;;;;78.65;39.28;;;;;;;;;;5027096;28;20024;-66
2023/10/20 00:07:05;;;;;;;72.20;37.15;;;;;;;;;;5030422;28;20018;-68
2023/10/20 00:09:30;;;;;;;73.53;37.03;;;;;;;;;;5025921;28;20037;-66
2023/10/20 00:11:55;;;;;;;78.95;39.90;;;;;;;;;;5030783;28;20025;-68
2023/10/20 00:14:21;;;;;;;75.53;37.53;;;;;;;;;;5022279;28;20029;-68
2023/10/20 00:16:46;;;;;;;73.43;37.80;;;;;;;;;;5032023;28;20082;-69
2023/10/20 00:19:11;;;;;;;77.18;38.90;;;;;;;;;;5029819;28;20108;-66
2023/10/20 00:21:39;;;;;;;73.20;36.60;;;;;;;;;;5008949;28;20149;-68
2023/10/20 00:24:04;;;;;;;78.60;40.15;;;;;;;;;;5027671;28;20075;-68
2023/10/20 00:26:29;;;;;;;79.32;38.97;;;;;;;;;;5038624;28;20013;-68
2023/10/20 00:28:55;;;;;;;74.28;37.65;;;;;;;;;;5018401;28;20025;-68
2023/10/20 00:31:20;;;;;;;78.38;38.63;;;;;;;;;;5026193;28;20021;-67
2023/10/20 00:33:45;;;;;;;76.05;39.33;;;;;;;;;;5026042;28;20430;-68
2023/10/20 00:36:11;;;;;;;83.10;40.80;;;;;;;;;;5024890;28;20072;-66
2023/10/20 00:38:36;;;;;;;84.93;40.30;;;;;;;;;;5025632;28;20477;-68
2023/10/20 00:41:01;;;;;;;83.22;40.22;;;;;;;;;;5026531;28;20056;-66
2023/10/20 00:43:34;;;;;;;79.70;38.42;;;;;;;;;;5026834;28;20037;-68
2023/10/20 00:45:59;;;;;;;85.55;41.70;;;;;;;;;;5022841;28;20037;-66
2023/10/20 00:48:24;;;;;;;82.13;39.30;;;;;;;;;;5024724;28;20013;-67
2023/10/20 00:50:50;;;;;;;78.72;38.88;;;;;;;;;;5026921;28;20653;-67
2023/10/20 00:53:16;;;;;;;85.05;41.13;;;;;;;;;;5026422;28;20493;-67
2023/10/20 00:55:42;;;;;;;78.43;38.38;;;;;;;;;;5029124;28;20259;-66
2023/10/20 00:58:08;;;;;;;85.18;39.08;;;;;;;;;;5025532;28;20595;-67
2023/10/20 01:00:34;;;;;;;79.32;40.38;;;;;;;;;;5026900;28;20013;-69
2023/10/20 01:02:59;;;;;;;86.07;40.65;;;;;;;;;;5025116;28;20021;-65
2023/10/20 01:05:24;;;;;;;84.72;39.67;;;;;;;;;;5028078;28;20036;-67
2023/10/20 01:07:50;;;;;;;95.30;42.75;;;;;;;;;;5026402;28;20021;-67
2023/10/20 01:10:15;;;;;;;83.97;39.80;;;;;;;;;;5030640;28;20079;-69
2023/10/20 01:12:40;;;;;;;89.20;41.13;;;;;;;;;;5008823;28;20559;-67
2023/10/20 01:15:06;;;;;;;87.22;40.10;;;;;;;;;;5024254;28;20021;-69
2023/10/20 01:17:32;;;;;;;91.80;40.10;;;;;;;;;;5010227;28;20299;-67
2023/10/20 01:20:00;;;;;;;82.18;38.83;;;;;;;;;;5025312;28;20040;-68
2023/10/20 01:22:25;;;;;;;94.03;41.70;;;;;;;;;;5025330;28;20009;-68
2023/10/20 01:24:51;;;;;;;79.28;38.90;;;;;;;;;;5024477;28;20503;-66
2023/10/20 01:27:16;;;;;;;86.00;39.47;;;;;;;;;;5032905;28;20045;-68
2023/10/20 01:29:41;;;;;;;84.07;38.72;;;;;;;;;;5024200;28;20108;-68
2023/10/20 01:32:06;;;;;;;87.78;39.58;;;;;;;;;;5033638;28;20132;-66
2023/10/20 01:34:32;;;;;;;93.57;40.70;;;;;;;;;;5024947;28;20025;-67
2023/10/20 01:36:57;;;;;;;91.47;39.83;;;;;;;;;;5044387;23;20099;-69
2023/10/20 01:39:22;;;;;;;96.63;41.75;;;;;;;;;;5026997;28;20029;-71
2023/10/20 01:41:48;;;;;;;95.63;42.10;;;;;;;;;;5020250;28;20017;-70
2023/10/20 01:44:13;;;;;;;86.25;39.78;;;;;;;;;;5028990;28;20060;-72
2023/10/20 01:46:39;;;;;;;97.78;41.17;;;;;;;;;;5029878;28;20435;-72
2023/10/20 01:49:05;;;;;;;101.35;41.80;;;;;;;;;;5029536;28;20024;-71
2023/10/20 01:51:31;;;;;;;98.28;39.40;;;;;;;;;;5032107;28;20010;-70
2023/10/20 01:53:56;;;;;;;99.85;40.13;;;;;;;;;;5013725;28;20441;-70
2023/10/20 01:56:21;;;;;;;104.80;42.67;;;;;;;;;;5012597;28;20084;-70
2023/10/20 01:58:47;;;;;;;114.30;42.22;;;;;;;;;;5032169;28;20048;-73
2023/10/20 02:01:12;;;;;;;109.15;42.97;;;;;;;;;;5030358;28;20021;-72
2023/10/20 02:03:37;;;;;;;107.63;45.22;;;;;;;;;;5031161;28;20018;-72
2023/10/20 02:06:03;;;;;;;96.22;40.55;;;;;;;;;;5029728;28;20503;-72
2023/10/20 02:08:28;;;;;;;108.68;43.13;;;;;;;;;;5025756;28;20013;-73
2023/10/20 02:10:54;;;;;;;103.07;42.58;;;;;;;;;;5027872;28;20071;-74
2023/10/20 02:13:19;;;;;;;117.90;43.88;;;;;;;;;;5031170;28;20028;-73
2023/10/20 02:15:48;;;;;;;97.60;43.78;;;;;;;;;;5012140;28;20017;-74
2023/10/20 02:18:14;;;;;;;104.65;43.22;;;;;;;;;;5031483;28;20079;-74
2023/10/20 02:20:39;;;;;;;109.70;42.95;;;;;;;;;;5030322;28;20026;-73
2023/10/20 02:23:04;;;;;;;100.30;42.70;;;;;;;;;;5030186;28;20372;-73
2023/10/20 02:25:30;;;;;;;113.75;43.53;;;;;;;;;;5030723;28;20021;-69
2023/10/20 02:27:55;;;;;;;100.50;40.95;;;;;;;;;;5029961;28;20067;-72
2023/10/20 02:30:21;;;;;;;106.35;44.42;;;;;;;;;;5031258;28;20455;-71
2023/10/20 02:32:46;;;;;;;99.70;41.60;;;;;;;;;;5031779;28;20017;-72
2023/10/20 02:35:11;;;;;;;103.47;42.47;;;;;;;;;;5029956;28;20020;-71
2023/10/20 02:37:37;;;;;;;104.28;44.15;;;;;;;;;;5029742;28;20031;-71
2023/10/20 02:40:04;;;;;;;91.55;40.85;;;;;;;;;;5030976;28;20524;-72
2023/10/20 02:42:30;;;;;;;109.35;43.03;;;;;;;;;;5028969;28;20013;-73
2023/10/20 02:44:56;;;;;;;112.60;44.78;;;;;;;;;;5028898;28;20646;-69
2023/10/20 02:47:21;;;;;;;101.07;41.45;;;;;;;;;;5029981;28;20056;-72
2023/10/20 02:49:46;;;;;;;101.60;42.20;;;;;;;;;;5030046;28;20104;-72
2023/10/20 02:52:13;;;;;;;95.75;43.00;;;;;;;;;;5029888;28;20064;-72
2023/10/20 02:54:38;;;;;;;113.05;43.88;;;;;;;;;;5028690;28;20030;-72
2023/10/20 02:57:05;;;;;;;100.38;40.47;;;;;;;;;;5028353;28;20519;-73
2023/10/20 02:59:30;;;;;;;111.88;42.00;;;;;;;;;;5008374;28;20013;-71
2023/10/20 03:01:55;;;;;;;109.65;43.33;;;;;;;;;;5030269;28;20021;-70
2023/10/20 03:04:21;;;;;;;116.03;44.38;;;;;;;;;;5031384;28;20063;-72
2023/10/20 03:06:46;;;;;;;103.88;42.65;;;;;;;;;;5030932;28;20059;-71
2023/10/20 03:09:13;;;;;;;116.60;44.17;;;;;;;;;;5034570;28;20010;-72
2023/10/20 03:11:38;;;;;;;102.47;43.40;;;;;;;;;;5029962;28;20104;-70
2023/10/20 03:14:06;;;;;;;111.13;43.10;;;;;;;;;;5030790;28;20148;-72
2023/10/20 03:16:34;;;;;;;106.65;41.00;;;;;;;;;;5003243;28;20373;-72
2023/10/20 03:19:01;;;;;;;102.03;42.13;;;;;;;;;;5026683;28;20028;-72
2023/10/20 03:21:26;;;;;;;107.93;42.22;;;;;;;;;;5028843;28;20588;-72
2023/10/20 03:23:51;;;;;;;105.32;43.78;;;;;;;;;;5028988;28;20018;-72
2023/10/20 03:26:16;;;;;;;98.05;42.03;;;;;;;;;;5027248;28;20037;-73
2023/10/20 03:28:42;;;;;;;115.53;45.05;;;;;;;;;;5029277;28;20033;-71
2023/10/20 03:31:07;;;;;;;115.15;43.25;;;;;;;;;;5029287;28;20028;-71
2023/10/20 03:33:32;;;;;;;104.90;41.97;;;;;;;;;;5029000;28;20025;-71
2023/10/20 03:35:58;;;;;;;107.63;41.42;;;;;;;;;;5029734;28;20024;-69
2023/10/20 03:38:24;;;;;;;116.47;43.33;;;;;;;;;;5027914;28;20507;-73
2023/10/20 03:40:49;;;;;;;123.07;44.13;;;;;;;;;;5029139;28;20088;-72
2023/10/20 03:43:14;;;;;;;101.40;42.35;;;;;;;;;;5028926;28;20092;-71
2023/10/20 03:45:51;;;;;;;123.38;45.42;;;;;;;;;;5028148;28;20093;-72
2023/10/20 03:48:19;;;;;;;121.88;42.75;;;;;;;;;;5029604;28;20025;-71
2023/10/20 03:50:46;;;;;;;124.30;45.97;;;;;;;;;;5028929;28;20075;-72
2023/10/20 03:53:15;;;;;;;122.00;45.40;;;;;;;;;;5028075;28;20115;-72
2023/10/20 03:55:40;;;;;;;115.28;45.13;;;;;;;;;;5027515;28;20461;-70
2023/10/20 03:58:06;;;;;;;114.75;43.88;;;;;;;;;;5027739;28;20031;-68
2023/10/20 04:00:35;;;;;;;121.82;46.00;;;;;;;;;;5030395;28;20389;-73
2023/10/20 04:03:00;;;;;;;102.25;44.90;;;;;;;;;;5028729;28;20017;-71
2023/10/20 04:05:26;;;;;;;107.70;42.72;;;;;;;;;;5027602;28;20010;-72
2023/10/20 04:07:51;;;;;;;105.90;43.03;;;;;;;;;;5028330;28;20023;-70
2023/10/20 04:10:18;;;;;;;123.70;47.17;;;;;;;;;;5028824;28;20092;-72
2023/10/20 04:12:44;;;;;;;106.25;42.63;;;;;;;;;;5023420;28;20060;-70
2023/10/20 04:15:14;;;;;;;106.57;43.92;;;;;;;;;;5027648;28;20018;-72
2023/10/20 04:17:41;;;;;;;114.85;41.97;;;;;;;;;;5028629;28;20021;-72
2023/10/20 04:20:07;;;;;;;127.32;43.78;;;;;;;;;;5027042;28;20032;-70
2023/10/20 04:22:40;;;;;;;108.68;43.28;;;;;;;;;;5027702;28;20104;-73
2023/10/20 04:25:10;;;;;;;100.18;41.40;;;;;;;;;;5027196;28;20121;-72
2023/10/20 04:27:45;;;;;;;113.55;41.60;;;;;;;;;;5028490;28;20025;-71
2023/10/20 04:47:36;;;;;;;104.20;37.92;;;;;;;;;;4971928;28;20039;-73
2023/10/20 05:02:54;;;;;;;94.47;34.33;;;;;;;;;;5025662;28;20044;-74
2023/10/20 05:08:05;;;;;;;88.30;35.13;;;;;;;;;;5026772;28;20021;-73
2023/10/20 05:10:31;;;;;;;94.32;32.92;;;;;;;;;;5020728;28;20017;-71
2023/10/20 05:12:56;;;;;;;92.15;32.17;;;;;;;;;;5025948;28;20024;-72
2023/10/20 05:15:21;;;;;;;77.25;30.73;;;;;;;;;;5026829;28;20021;-71
2023/10/20 05:17:47;;;;;;;81.03;31.55;;;;;;;;;;5026519;28;20047;-72
2023/10/20 05:20:15;;;;;;;82.22;30.67;;;;;;;;;;5026913;28;20368;-74
2023/10/20 05:22:40;;;;;;;82.00;30.83;;;;;;;;;;5028915;28;20021;-69
2023/10/20 05:25:06;;;;;;;81.32;30.30;;;;;;;;;;5026212;28;20013;-73
2023/10/20 05:27:31;;;;;;;91.28;31.17;;;;;;;;;;5025791;28;20493;-72
2023/10/20 05:29:57;;;;;;;76.97;30.08;;;;;;;;;;5026919;28;20013;-73
2023/10/20 05:32:22;;;;;;;89.35;31.33;;;;;;;;;;5027852;28;20013;-72
2023/10/20 05:34:47;;;;;;;78.65;29.02;;;;;;;;;;5027588;28;20074;-74
2023/10/20 05:37:12;;;;;;;73.38;28.35;;;;;;;;;;5025636;28;20021;-72
2023/10/20 05:39:40;;;;;;;79.70;28.63;;;;;;;;;;5029683;28;20041;-70
2023/10/20 05:42:05;;;;;;;72.45;28.27;;;;;;;;;;5009670;28;20109;-70
2023/10/20 05:44:31;;;;;;;81.03;29.08;;;;;;;;;;5027015;28;20092;-72
2023/10/20 05:46:56;;;;;;;88.85;30.67;;;;;;;;;;5022751;28;20022;-72
2023/10/20 05:49:22;;;;;;;79.30;27.17;;;;;;;;;;5024973;28;20029;-73
2023/10/20 05:51:48;;;;;;;82.20;27.83;;;;;;;;;;5020142;28;20060;-71
2023/10/20 05:54:13;;;;;;;92.03;32.85;;;;;;;;;;5023633;28;20511;-69
2023/10/20 05:56:39;;;;;;;83.18;28.73;;;;;;;;;;5021463;28;20108;-70
2023/10/20 05:59:04;;;;;;;81.78;30.73;;;;;;;;;;5028072;28;20031;-71
2023/10/20 06:01:29;;;;;;;87.75;30.10;;;;;;;;;;5026219;28;20592;-72
2023/10/20 06:03:55;;;;;;;95.55;32.47;;;;;;;;;;5027422;28;20067;-72
2023/10/20 06:06:21;;;;;;;94.18;32.92;;;;;;;;;;5026963;28;20018;-71
2023/10/20 06:08:46;;;;;;;84.38;29.35;;;;;;;;;;5025334;28;20128;-71
2023/10/20 06:11:11;;;;;;;94.93;32.97;;;;;;;;;;5024130;28;20021;-73
2023/10/20 06:13:36;;;;;;;85.50;30.02;;;;;;;;;;5026147;28;20022;-71
2023/10/20 06:16:08;;;;;;;84.88;31.90;;;;;;;;;;5027475;28;20075;-70
2023/10/20 06:18:35;;;;;;;93.53;31.95;;;;;;;;;;5007981;28;20362;-70
2023/10/20 06:21:00;;;;;;;92.35;31.90;;;;;;;;;;5027743;28;20021;-72
2023/10/20 06:23:25;;;;;;;83.03;29.92;;;;;;;;;;5027951;28;20546;-70
2023/10/20 06:25:50;;;;;;;83.22;28.75;;;;;;;;;;5026560;28;20009;-72
2023/10/20 06:28:16;;;;;;;73.57;29.65;;;;;;;;;;5027429;28;20020;-71
2023/10/20 06:30:45;;;;;;;74.53;29.13;;;;;;;;;;5032137;28;20025;-71
2023/10/20 06:33:16;;;;;;;77.43;29.38;;;;;;;;;;5030814;28;20017;-71
2023/10/20 06:35:51;;;;;;;73.93;28.10;;;;;;;;;;5030850;28;20025;-71
2023/10/20 06:39:05;;;;;;;73.82;28.67;;;;;;;;;;5031322;28;20062;-71
2023/10/20 06:41:05;;;;;;;;;;;;;;;;;;5017342;28;20034;-74
2023/10/20 06:43:30;;;;;;;66.93;26.27;;;;;;;;;;5031393;28;19908;-72
2023/10/20 06:45:56;;;;;;;76.43;28.05;;;;;;;;;;5031480;28;20013;-71
2023/10/20 06:48:21;;;;;;;66.47;27.27;;;;;;;;;;5030826;28;20026;-73
2023/10/20 06:50:46;;;;;;;71.32;27.80;;;;;;;;;;5030290;28;20029;-72
2023/10/20 06:53:12;;;;;;;66.45;28.45;;;;;;;;;;5028541;28;20017;-73
2023/10/20 06:55:40;;;;;;;64.97;27.05;;;;;;;;;;5029176;28;20372;-71
2023/10/20 06:58:05;;;;;;;68.85;28.10;;;;;;;;;;5028091;28;20025;-71
2023/10/20 07:00:31;;;;;;;54.67;23.92;;;;;;;;;;5022974;28;20105;-73
2023/10/20 07:02:56;;;;;;;62.33;26.92;;;;;;;;;;5025514;28;20113;-72
2023/10/20 07:05:23;;;;;;;60.67;25.75;;;;;;;;;;5025268;28;20010;-72
2023/10/20 07:07:49;;;;;;;62.22;29.02;;;;;;;;;;5030357;28;20033;-71
2023/10/20 07:10:14;;;;;;;62.25;26.42;;;;;;;;;;5033634;28;20021;-71
2023/10/20 07:12:39;;;;;;;56.38;24.55;;;;;;;;;;5029943;28;20025;-73
2023/10/20 07:15:05;;;;;;;48.13;25.63;;;;;;;;;;5030948;28;20151;-73
2023/10/20 07:17:31;;;;;;;55.72;24.48;;;;;;;;;;5030492;28;20460;-71
2023/10/20 07:19:56;;;;;;;51.65;25.25;;;;;;;;;;5029181;28;20518;-73
2023/10/20 07:22:21;;;;;;;47.35;24.02;;;;;;;;;;5030918;28;20036;-73
2023/10/20 07:24:47;;;;;;;42.67;22.52;;;;;;;;;;5035620;28;20036;-69
2023/10/20 07:27:12;;;;;;;49.13;23.63;;;;;;;;;;5029587;28;20037;-70
2023/10/20 07:29:38;;;;;;;49.42;22.90;;;;;;;;;;5031190;28;20484;-71
2023/10/20 07:32:03;;;;;;;56.40;24.55;;;;;;;;;;5029843;28;20152;-71
2023/10/20 07:34:29;;;;;;;51.25;24.15;;;;;;;;;;5030691;28;20020;-72
2023/10/20 07:36:54;;;;;;;43.80;22.05;;;;;;;;;;5036208;23;20054;-68
2023/10/20 07:39:19;;;;;;;55.80;23.77;;;;;;;;;;5001794;28;20026;-68
2023/10/20 07:41:45;;;;;;;48.85;24.25;;;;;;;;;;4992217;28;20010;-67
2023/10/20 07:44:12;;;;;;;43.97;23.02;;;;;;;;;;5019559;28;20449;-66
2023/10/20 07:46:37;;;;;;;44.80;21.75;;;;;;;;;;5001505;28;20420;-68
2023/10/20 07:49:03;;;;;;;46.78;23.60;;;;;;;;;;5012337;28;20017;-67
2023/10/20 07:51:28;;;;;;;47.05;23.10;;;;;;;;;;5029179;28;20020;-68
2023/10/20 07:53:53;;;;;;;48.58;23.10;;;;;;;;;;5030032;28;20495;-68
2023/10/20 07:56:19;;;;;;;40.03;20.60;;;;;;;;;;5028102;28;20034;-68
2023/10/20 07:58:44;;;;;;;44.10;21.95;;;;;;;;;;5029969;28;20025;-68
2023/10/20 08:01:09;;;;;;;44.58;19.85;;;;;;;;;;5030033;28;20026;-68
2023/10/20 08:03:34;;;;;;;42.20;21.80;;;;;;;;;;5029686;28;20016;-67
2023/10/20 08:06:02;;;;;;;42.40;19.67;;;;;;;;;;5022954;28;20033;-66
2023/10/20 08:08:28;;;;;;;42.60;20.67;;;;;;;;;;5028942;28;20021;-68
2023/10/20 08:10:53;;;;;;;41.58;19.63;;;;;;;;;;5011297;28;20423;-69
2023/10/20 08:13:18;;;;;;;48.85;22.58;;;;;;;;;;5029245;28;20497;-68
2023/10/20 08:15:43;;;;;;;43.40;19.85;;;;;;;;;;5029686;28;20029;-68
2023/10/20 08:18:09;;;;;;;43.58;19.38;;;;;;;;;;5029180;28;20009;-68
2023/10/20 08:20:34;;;;;;;43.25;20.40;;;;;;;;;;5027802;28;20013;-68
2023/10/20 08:23:00;;;;;;;40.40;19.48;;;;;;;;;;5029604;28;20021;-67
2023/10/20 08:25:25;;;;;;;41.22;19.45;;;;;;;;;;5028641;28;20014;-67
2023/10/20 08:27:50;;;;;;;34.47;19.27;;;;;;;;;;5028234;28;20017;-68
2023/10/20 08:30:16;;;;;;;38.97;19.27;;;;;;;;;;5029437;28;20104;-68
2023/10/20 08:32:42;;;;;;;40.92;19.75;;;;;;;;;;5027940;28;20041;-65
2023/10/20 08:35:08;;;;;;;34.28;17.63;;;;;;;;;;5001962;28;20444;-67
2023/10/20 08:37:33;;;;;;;37.95;19.48;;;;;;;;;;5025075;28;20013;-67
2023/10/20 08:39:58;;;;;;;33.63;19.30;;;;;;;;;;5024450;28;20637;-67
2023/10/20 08:42:24;;;;;;;41.70;19.55;;;;;;;;;;5010483;28;20476;-67
2023/10/20 08:44:50;;;;;;;37.15;19.10;;;;;;;;;;5029098;28;20147;-64
2023/10/20 08:47:16;;;;;;;37.50;19.50;;;;;;;;;;5029029;28;20027;-66
2023/10/20 08:49:42;;;;;;;41.78;20.40;;;;;;;;;;5029287;28;20452;-67
2023/10/20 08:52:08;;;;;;;41.72;19.17;;;;;;;;;;5028481;28;20041;-67
2023/10/20 08:54:33;;;;;;;41.13;20.33;;;;;;;;;;5028224;28;20052;-68
2023/10/20 08:56:59;;;;;;;44.83;21.13;;;;;;;;;;5027599;28;20457;-66
2023/10/20 08:59:24;;;;;;;50.08;21.80;;;;;;;;;;5024769;28;20353;-67
2023/10/20 09:01:51;;;;;;;39.72;18.95;;;;;;;;;;5028426;28;20481;-67
2023/10/20 09:04:21;;;;;;;44.67;20.80;;;;;;;;;;5022307;28;20036;-65
2023/10/20 09:06:46;;;;;;;41.78;18.40;;;;;;;;;;5009653;28;20053;-67
2023/10/20 09:09:11;;;;;;;46.88;21.90;;;;;;;;;;5025235;28;20025;-65
2023/10/20 09:11:39;;;;;;;42.20;19.27;;;;;;;;;;5025846;28;20032;-66
2023/10/20 09:14:05;;;;;;;;;;;;;;;;;;5023731;28;20017;-64
2023/10/20 09:16:33;;;;;;;37.88;19.85;;;;;;;;;;5020104;28;19901;-65
2023/10/20 09:18:58;;;;;;;42.53;20.65;;;;;;;;;;5025390;28;20021;-66
2023/10/20 09:21:24;;;;;;;43.22;20.67;;;;;;;;;;5017169;28;20017;-66
2023/10/20 09:23:58;;;;;;;46.33;20.13;;;;;;;;;;5026652;28;20625;-66
2023/10/20 09:26:24;;;;;;;57.20;23.27;;;;;;;;;;5024226;28;20013;-66
2023/10/20 09:28:50;;;;;;;49.78;21.92;;;;;;;;;;5023480;28;20017;-66
2023/10/20 09:31:16;;;;;;;42.72;21.67;;;;;;;;;;5022313;28;20025;-68
2023/10/20 09:33:42;;;;;;;45.17;20.83;;;;;;;;;;5027366;28;20028;-66
2023/10/20 09:36:07;;;;;;;45.90;22.33;;;;;;;;;;5028075;28;20075;-67
2023/10/20 09:38:34;;;;;;;49.50;21.35;;;;;;;;;;5028480;28;20032;-64
2023/10/20 09:41:07;;;;;;;40.55;21.63;;;;;;;;;;5024726;28;20040;-63
2023/10/20 09:43:36;;;;;;;49.08;23.02;;;;;;;;;;5026444;28;20018;-66
2023/10/20 09:46:16;;;;;;;51.40;23.15;;;;;;;;;;5007641;28;20124;-62
2023/10/20 09:48:42;;;;;;;42.88;20.73;;;;;;;;;;5008907;28;20030;-66
2023/10/20 09:51:08;;;;;;;43.10;22.55;;;;;;;;;;5001389;28;20029;-66
2023/10/20 09:53:34;;;;;;;52.25;23.45;;;;;;;;;;5006138;28;20029;-66
2023/10/20 09:56:00;;;;;;;49.80;21.70;;;;;;;;;;5003426;28;20088;-67
2023/10/20 09:58:26;;;;;;;46.63;22.80;;;;;;;;;;4999801;28;20045;-64
2023/10/20 10:00:51;;;;;;;50.83;21.42;;;;;;;;;;5025031;28;20160;-67
2023/10/20 10:03:42;;;;;;;46.72;21.73;;;;;;;;;;5029649;28;20014;-66
2023/10/20 10:06:13;;;;;;;50.30;23.13;;;;;;;;;;5027474;28;20647;-65
2023/10/20 10:08:44;;;;;;;50.38;21.25;;;;;;;;;;5031635;28;20017;-64
2023/10/20 10:11:28;;;;;;;47.53;21.33;;;;;;;;;;5031395;28;20560;-64
2023/10/20 10:14:01;;;;;;;53.10;21.33;;;;;;;;;;5014581;28;20029;-66
2023/10/20 10:16:26;;;;;;;55.10;23.83;;;;;;;;;;5031102;28;20056;-67
2023/10/20 10:18:54;;;;;;;52.45;20.95;;;;;;;;;;5030609;28;20049;-68
2023/10/20 10:21:28;;;;;;;54.25;23.52;;;;;;;;;;5033764;28;20497;-67
2023/10/20 10:24:09;;;;;;;48.08;21.50;;;;;;;;;;5029000;28;20017;-68
2023/10/20 10:26:43;;;;;;;50.35;20.73;;;;;;;;;;5025740;28;20017;-65
2023/10/20 10:29:08;;;;;;;54.47;22.83;;;;;;;;;;5030872;28;20029;-71
2023/10/20 10:31:37;;;;;;;53.40;20.75;;;;;;;;;;5007063;28;20027;-66
2023/10/20 10:34:05;;;;;;;53.63;20.38;;;;;;;;;;5012943;28;20440;-66
2023/10/20 10:36:41;;;;;;;45.45;18.63;;;;;;;;;;4999476;28;20398;-67
2023/10/20 10:39:06;;;;;;;45.05;19.38;;;;;;;;;;5016296;28;20120;-66
2023/10/20 10:41:32;;;;;;;48.20;18.63;;;;;;;;;;4998860;28;20112;-66
2023/10/20 10:43:57;;;;;;;39.40;18.70;;;;;;;;;;4994850;28;20481;-66
2023/10/20 10:46:32;;;;;;;45.35;18.77;;;;;;;;;;5018295;28;20021;-68
2023/10/20 10:49:05;;;;;;;43.40;19.83;;;;;;;;;;4994484;28;20014;-62
2023/10/20 10:51:30;;;;;;;47.50;19.42;;;;;;;;;;5000782;28;20111;-66
2023/10/20 10:53:55;;;;;;;46.70;17.42;;;;;;;;;;5014263;28;20033;-67
2023/10/20 10:56:21;;;;;;;44.75;17.70;;;;;;;;;;5014726;28;20492;-66
2023/10/20 10:58:47;;;;;;;45.40;18.42;;;;;;;;;;4995358;28;20059;-66
2023/10/20 11:01:12;;;;;;;48.67;17.92;;;;;;;;;;4997188;28;20088;-65
2023/10/20 11:03:37;;;;;;;46.92;18.83;;;;;;;;;;4996388;28;20167;-63
2023/10/20 11:06:03;;;;;;;41.58;15.73;;;;;;;;;;5013650;28;20079;-66
2023/10/20 11:08:29;;;;;;;37.30;17.45;;;;;;;;;;4996801;28;20041;-65
2023/10/20 11:10:59;;;;;;;50.22;18.00;;;;;;;;;;4996468;28;20450;-68
2023/10/20 11:13:27;;;;;;;44.05;17.83;;;;;;;;;;5013933;28;20474;-66
2023/10/20 11:15:52;;;;;;;44.40;17.80;;;;;;;;;;4994621;28;20425;-66
2023/10/20 11:18:20;;;;;;;33.15;15.30;;;;;;;;;;4998492;28;20029;-66
2023/10/20 11:20:47;;;;;;;30.20;14.20;;;;;;;;;;4995523;28;20237;-64
2023/10/20 11:23:14;;;;;;;36.33;16.23;;;;;;;;;;4995986;28;20029;-65
2023/10/20 11:25:42;;;;;;;35.67;15.52;;;;;;;;;;5013830;28;20053;-62
2023/10/20 11:28:08;;;;;;;37.00;16.20;;;;;;;;;;5014152;28;20382;-66
2023/10/20 11:30:35;;;;;;;40.80;16.10;;;;;;;;;;4997741;28;20029;-66
2023/10/20 11:33:00;;;;;;;34.00;14.73;;;;;;;;;;4997194;28;20029;-66
2023/10/20 11:35:26;;;;;;;33.92;14.68;;;;;;;;;;5015039;28;20386;-65
2023/10/20 11:37:52;;;;;;;31.52;14.05;;;;;;;;;;4999099;28;20059;-63
2023/10/20 11:40:18;;;;;;;29.85;14.23;;;;;;;;;;5018838;28;20029;-65
2023/10/20 11:42:43;;;;;;;33.83;14.02;;;;;;;;;;4994946;28;20404;-66
2023/10/20 11:45:10;;;;;;;34.58;14.77;;;;;;;;;;4982000;28;20439;-63
2023/10/20 11:47:36;;;;;;;32.00;13.35;;;;;;;;;;4993796;28;20022;-64
2023/10/20 11:50:02;;;;;;;30.42;12.48;;;;;;;;;;4995283;28;20362;-64
2023/10/20 11:52:27;;;;;;;33.72;14.88;;;;;;;;;;5009718;28;20052;-67
2023/10/20 11:54:52;;;;;;;31.38;14.75;;;;;;;;;;5013987;28;20053;-69
2023/10/20 11:57:18;;;;;;;23.42;12.73;;;;;;;;;;4998120;28;20029;-66
2023/10/20 11:59:43;;;;;;;29.83;14.45;;;;;;;;;;5015382;28;20452;-64
2023/10/20 12:02:08;;;;;;;30.00;12.60;;;;;;;;;;5012097;28;20014;-65
2023/10/20 12:04:34;;;;;;;25.45;13.38;;;;;;;;;;5015734;28;20037;-67
2023/10/20 12:06:59;;;;;;;29.00;13.63;;;;;;;;;;5014622;28;20037;-65
2023/10/20 12:09:24;;;;;;;27.10;14.57;;;;;;;;;;5013438;28;20707;-64
2023/10/20 12:11:50;;;;;;;27.50;13.70;;;;;;;;;;5011718;28;20152;-66
2023/10/20 12:14:15;;;;;;;29.80;12.85;;;;;;;;;;5015411;28;20534;-66
2023/10/20 12:16:41;;;;;;;37.85;14.35;;;;;;;;;;5021251;28;20072;-65
2023/10/20 12:19:07;;;;;;;25.73;12.40;;;;;;;;;;5025427;28;20448;-66
2023/10/20 12:21:32;;;;;;;27.85;13.13;;;;;;;;;;5026682;28;20530;-66
2023/10/20 12:23:58;;;;;;;28.58;12.38;;;;;;;;;;5028129;28;20010;-63
2023/10/20 12:26:23;;;;;;;33.25;12.98;;;;;;;;;;5025335;28;20045;-67
2023/10/20 12:28:50;;;;;;;31.30;13.30;;;;;;;;;;5027739;28;20096;-66
2023/10/20 12:31:15;;;;;;;28.50;14.55;;;;;;;;;;5027384;28;20429;-66
2023/10/20 12:33:42;;;;;;;35.97;15.32;;;;;;;;;;5027732;28;20032;-65
2023/10/20 12:36:08;;;;;;;26.08;13.57;;;;;;;;;;5023167;28;20437;-62
2023/10/20 12:38:33;;;;;;;26.33;12.88;;;;;;;;;;5027465;28;20477;-66
2023/10/20 12:40:58;;;;;;;32.00;13.70;;;;;;;;;;5029154;28;20104;-68
2023/10/20 12:43:25;;;;;;;28.83;13.57;;;;;;;;;;5029981;28;20012;-66
2023/10/20 12:45:51;;;;;;;32.45;14.95;;;;;;;;;;5028672;28;20049;-66
2023/10/20 12:48:16;;;;;;;29.88;14.15;;;;;;;;;;5028526;28;20420;-66
2023/10/20 12:50:41;;;;;;;32.80;14.25;;;;;;;;;;5028565;28;20022;-65
2023/10/20 12:53:07;;;;;;;30.58;15.10;;;;;;;;;;5029425;28;20023;-65
2023/10/20 12:55:35;;;;;;;30.65;14.50;;;;;;;;;;5029262;28;20020;-68
2023/10/20 12:58:02;;;;;;;26.27;14.45;;;;;;;;;;5029965;28;20117;-66
2023/10/20 13:00:27;;;;;;;33.35;15.32;;;;;;;;;;5028657;28;20089;-64
2023/10/20 13:02:52;;;;;;;33.13;14.75;;;;;;;;;;5028760;28;20086;-66
2023/10/20 13:05:18;;;;;;;29.33;14.85;;;;;;;;;;5027631;28;20487;-64
2023/10/20 13:07:44;;;;;;;27.60;13.88;;;;;;;;;;5028223;28;20018;-69
2023/10/20 13:10:09;;;;;;;31.75;15.20;;;;;;;;;;5027054;28;20025;-64
2023/10/20 13:12:35;;;;;;;31.42;15.27;;;;;;;;;;5021651;28;20025;-66
2023/10/20 13:15:00;;;;;;;26.75;14.63;;;;;;;;;;5026905;28;20485;-64
2023/10/20 13:17:27;;;;;;;38.47;15.68;;;;;;;;;;5027295;28;20128;-68
2023/10/20 13:19:52;;;;;;;33.45;15.70;;;;;;;;;;5022670;28;20048;-66
2023/10/20 13:22:18;;;;;;;32.13;14.82;;;;;;;;;;5028240;28;20046;-67
2023/10/20 13:24:44;;;;;;;31.17;15.50;;;;;;;;;;5027778;28;20022;-64
2023/10/20 13:27:10;;;;;;;35.13;15.98;;;;;;;;;;5028449;28;20013;-65
2023/10/20 13:29:35;;;;;;;30.13;12.60;;;;;;;;;;5019518;28;20033;-64
2023/10/20 13:32:00;;;;;;;25.95;13.35;;;;;;;;;;5021530;28;20107;-67
2023/10/20 13:34:26;;;;;;;26.20;13.98;;;;;;;;;;5017615;28;20041;-64
2023/10/20 13:36:51;;;;;;;26.48;14.05;;;;;;;;;;4988137;28;20291;-65
2023/10/20 13:39:16;;;;;;;23.63;13.93;;;;;;;;;;5014607;28;20151;-63
2023/10/20 13:41:42;;;;;;;26.13;13.73;;;;;;;;;;5032602;28;20116;-65
2023/10/20 13:44:09;;;;;;;24.45;13.48;;;;;;;;;;5015603;28;20047;-65
2023/10/20 13:46:35;;;;;;;23.58;12.07;;;;;;;;;;5031233;28;20066;-67
2023/10/20 13:49:00;;;;;;;27.05;13.80;;;;;;;;;;4990111;28;20037;-66
2023/10/20 13:51:25;;;;;;;25.63;12.95;;;;;;;;;;5012145;28;20021;-64
2023/10/20 13:53:51;;;;;;;26.42;13.85;;;;;;;;;;5009193;28;20036;-67
2023/10/20 13:56:17;;;;;;;27.17;12.57;;;;;;;;;;5012944;28;20023;-65
2023/10/20 13:58:42;;;;;;;24.05;13.05;;;;;;;;;;5032059;28;20028;-63
2023/10/20 14:01:07;;;;;;;27.95;12.93;;;;;;;;;;5014097;28;20105;-62
2023/10/20 14:03:33;;;;;;;23.65;12.77;;;;;;;;;;5031739;28;20021;-65
2023/10/20 14:05:58;;;;;;;28.83;13.52;;;;;;;;;;5030189;28;20189;-65
2023/10/20 14:08:24;;;;;;;35.03;14.70;;;;;;;;;;5031339;28;20033;-65
2023/10/20 14:10:49;;;;;;;24.33;13.23;;;;;;;;;;5027177;28;20540;-66
2023/10/20 14:13:15;;;;;;;23.17;11.93;;;;;;;;;;5031907;28;20084;-63
2023/10/20 14:15:42;;;;;;;27.10;13.23;;;;;;;;;;5031194;28;20484;-65
2023/10/20 14:18:07;;;;;;;27.73;14.00;;;;;;;;;;5009005;28;20133;-61
2023/10/20 14:20:33;;;;;;;23.15;13.18;;;;;;;;;;5027192;28;20077;-65
2023/10/20 14:22:58;;;;;;;26.00;13.30;;;;;;;;;;5031214;28;20022;-64
2023/10/20 14:25:23;;;;;;;24.25;14.15;;;;;;;;;;5009069;28;20466;-64
2023/10/20 14:27:49;;;;;;;29.73;14.75;;;;;;;;;;5012709;28;20483;-66
2023/10/20 14:30:14;;;;;;;28.13;15.43;;;;;;;;;;5022091;28;21441;-65
2023/10/20 14:32:39;;;;;;;25.13;13.10;;;;;;;;;;5027123;28;20473;-65
2023/10/20 14:35:06;;;;;;;31.88;15.25;;;;;;;;;;5013329;28;20033;-63
2023/10/20 14:37:31;;;;;;;30.23;13.93;;;;;;;;;;5022590;28;20043;-66
2023/10/20 14:39:57;;;;;;;27.20;14.43;;;;;;;;;;5012888;28;20109;-64
2023/10/20 14:42:22;;;;;;;32.53;16.92;;;;;;;;;;5030038;28;20029;-67
2023/10/20 14:44:50;;;;;;;29.75;15.40;;;;;;;;;;5012370;28;20036;-67